Nearby METAR Reports

 

LJLJ - Ljubljana/Brnik, Slovenia
Distance from station: W 41km
Updated: 12/08/2020 17:00
Nearby thunderstorm, Partly cloudy
Nearby thunderstorm, Partly cloudy
 Wind from ENE
Wind: ENE 9 km/h
Temperature: 26°C
Dew Point: 18°C
Humidity: 61%
Barometer: 1018 hPa
Summary: Nearby Thunderstorm
Clouds: Partly cloudy
Visibility: 10 km
Cloud details: Few Clouds 1006 m
Partly cloudy 4877 m
2020/08/12 15:00 LJLJ 121500Z 07005KT 030V100 9999 VCTS FEW033CB SCT160 26/18 Q1018 NOSIG
LJMB - Maribor, Slovenia
Distance from station: NE 63km
Updated: 12/08/2020 17:00
Mostly cloudy
Mostly cloudy
 Wind from SW
Wind: SW 2 km/h
Temperature: 28°C
Heat Index: 29°C
Dew Point: 18°C
Humidity: 55%
Barometer: 1017 hPa
Clouds: Mostly cloudy
Visibility: 10 km
Cloud details: Few Clouds 1402 m
Mostly cloudy 7620 m
2020/08/12 15:00 LJMB 121500Z 22001KT 9999 FEW046 BKN250 28/18 Q1017
 
LJPZ - Portoroz, Slovenia
Distance from station: SW 130km
Updated: 12/08/2020 17:00
Few Clouds
Few Clouds
 Wind from SSW
Wind: SSW 11 km/h
Temperature: 32°C
Heat Index: 34°C
Dew Point: 19°C
Humidity: 46%
Barometer: 1015 hPa
Clouds: Few Clouds
Visibility: 10 km
Cloud details: Few Clouds 1219 m
2020/08/12 15:00 LJPZ 121500Z 20006KT 9999 FEW040TCU 32/19 Q1015
LJCE - Cerklje, Slovenia
Distance from station: ESE 49km
Updated: 12/08/2020 17:00
Few Clouds
Few Clouds
 Wind from NE
Wind: NE 7 km/h
Temperature: 28°C
Heat Index: 29°C
Dew Point: 19°C
Humidity: 58%
Barometer: 1017 hPa
Clouds: Few Clouds
Visibility: 10 km
Cloud details: Few Clouds 1067 m
2020/08/12 15:00 LJCE 121500Z 05004KT 9999 FEW035TCU 28/19 Q1017 RMK BLU
 
LDZA - Zagreb/Pleso, Croatia
Distance from station: ESE 96km
Updated: 12/08/2020 17:00
Few Clouds
Few Clouds
 Wind from ENE
Wind: ENE 9 km/h
Temperature: 30°C
Heat Index: 32°C
Dew Point: 20°C
Humidity: 55%
Barometer: 1016 hPa
Clouds: Few Clouds
Visibility: 10 km
Cloud details: Few Clouds 1219 m
Few Clouds 1311 m
2020/08/12 15:00 LDZA 121500Z 06005KT 330V120 9999 FEW040TCU FEW043 30/20 Q1016 NOSIG
LDRI - Rijeka/Omisalj, Croatia
Distance from station: SSW 109km
Updated: 12/08/2020 17:00
Partly cloudy
Partly cloudy
 Wind from NNW
Wind: NNW 9 km/h
Temperature: 28°C
Heat Index: 29°C
Dew Point: 20°C
Humidity: 62%
Barometer: 1016 hPa
Clouds: Partly cloudy
Visibility: 10 km
Cloud details: Few Clouds 1219 m
Partly cloudy 1372 m
2020/08/12 15:00 LDRI 121500Z 33005KT 300V050 9999 FEW040 SCT045 28/20 Q1016
 
LDPL - Pula, Croatia
Distance from station: SSW 164km
Updated: 12/08/2020 17:00
Few Clouds
Few Clouds
 Wind from W
Wind: W 11 km/h
Temperature: 31°C
Heat Index: 33°C
Dew Point: 20°C
Humidity: 52%
Barometer: 1015 hPa
Clouds: Few Clouds
Visibility: 10 km
Cloud details: Few Clouds 1128 m
2020/08/12 15:00 LDPL 121500Z 28006KT 210V320 9999 FEW037 31/20 Q1015 TEMPO TSRA FEW030CB
LOWK - Klagenfurt(Civ/M, Austria
Distance from station: NW 76km
Updated: 12/08/2020 16:50
Thunderstorm
Thunderstorm
 Wind from E
Wind: E 7 km/h
Temperature: 28°C
Heat Index: 29°C
Dew Point: 18°C
Humidity: 55%
Barometer: 1018 hPa
Clouds: Thunderstorm
Visibility: 10 km
2020/08/12 14:50 LOWK 121450Z AUTO 10004KT 040V160 9999 //////CB 28/18 Q1018
 
LOWG - Graz (mil/Civ), Austria
Distance from station: NNE 100km
Updated: 12/08/2020 16:50
Few Clouds
Few Clouds
 Wind from SE
Wind: SE 7 km/h
Temperature: 28°C
Heat Index: 28°C
Dew Point: 16°C
Humidity: 48%
Barometer: 1018 hPa
Clouds: Few Clouds
Visibility: 10 km
Cloud details: Few Clouds 1372 m
Few Clouds 1524 m
2020/08/12 14:50 LOWG 121450Z 13004KT 070V180 9999 FEW045 FEW050TCU 28/16 Q1018 NOSIG
LOAN - Wr.neustadt East, Austria
Distance from station: NNE 212km
Updated: 12/08/2020 16:00
Partly cloudy
Partly cloudy
 Wind from SSE
Wind: SSE 15 km/h
Clouds: Partly cloudy
Cloud details: Partly cloudy 1067 m
2020/08/12 14:00 LOAN 121400Z 15008KT 40KM SCT035CU
 
LIPQ - Ronchi Legionari, Italy
Distance from station: SW 35km
Updated: 12/08/2020 16:50
Clear
Clear
 Wind from S
Wind: S 11 km/h
Temperature: 31°C
Heat Index: 32°C
Dew Point: 18°C
Humidity: 46%
Barometer: 1015 hPa
Clouds: Clear
Visibility: 10 km
2020/08/12 14:50 LIPQ 121450Z AUTO 19006KT 160V220 9999 NCD 31/18 Q1015
LIVT - Trieste, Italy
Distance from station: WSW 109km
Updated: 12/08/2020 15:55
Few Clouds
Few Clouds
 Wind from varies
Wind: varies 0 km/h
Temperature: 30°C
Heat Index: 33°C
Dew Point: 22°C
Humidity: 62%
Barometer: 1015 hPa
Clouds: Few Clouds
Visibility: 10 km
Cloud details: Few Clouds 914 m
2020/08/12 13:55 LIVT 121355Z /////KT 9999 FEW030 30/22 Q1015 RMK FEW QUK 1 QUL 0 VIS MAR 20 KM VIS MIN 9999
 
LIVO - Tarvisio, Italy
Distance from station: NNW 49km
Updated: 12/08/2020 16:55
Light thunderstorm, Rain, Partly cloudy
Light thunderstorm, Rain, Partly cloudy
 Wind from NW
Wind: NW 6 km/h
Temperature: 23°C
Dew Point: 21°C
Humidity: 89%
Barometer: 1019 hPa
Summary: Light thunderstorm, Rain
Clouds: Partly cloudy
Visibility: 10 km
Cloud details: Few Clouds 762 m
Partly cloudy 853 m
2020/08/12 14:55 LIVO 121455Z 32003KT 9999 -TSRA FEW025CB SCT028 23/21 Q1019 RMK BKN VIS MIN 9999
LIPZ - Venezia/Tessera, Italy
Distance from station: WSW 217km
Updated: 12/08/2020 16:50
Clear
Clear
 Wind from SSE
Wind: SSE 7 km/h
Temperature: 31°C
Heat Index: 34°C
Dew Point: 21°C
Humidity: 55%
Barometer: 1014 hPa
Summary: Clear
Visibility: greater than 10 km
2020/08/12 14:50 LIPZ 121450Z 15004KT 120V190 CAVOK 31/21 Q1014 NOSIG
 
LHSM - Balaton, Hungary
Distance from station: ENE 177km
Updated: 12/08/2020 16:45
Clear
Clear
 Wind from varies
Wind: varies 4 km/h
Temperature: 29°C
Heat Index: 29°C
Dew Point: 17°C
Humidity: 48%
Barometer: 1017 hPa
Summary: Clear
Visibility: greater than 10 km
2020/08/12 14:45 LHSM 121445Z AUTO VRB02KT CAVOK 29/17 Q1017 NOSIG